BWA1530 SEGU-TTCP
Flight info
| Callsign | BWA1530 |
|---|---|
| Flight time | 3h 18m |
| Altitude | 33000 |
| Route | BIVAN1 AKPOT UM662 SEKLU/N0468F350 UM662 IVPUS UP671 MEGIR |
| Aircraft | B738/M-SDE2E3FGHIRWXY/LB1 |
Departure
| Time | 2026-04-23 22:05 |
|---|---|
| Airport | José Joaquín de Olmedo International Airport (SEGU) |
Arrival
| Time | 2026-04-24 01:24 |
|---|---|
| Airport | A.N.R. Robinson International Airport (TTCP) |
| Time | Latitude | Longitude | Altitude | Speed | Heading |
|---|---|---|---|---|---|
| 2026-04-23 20:35 | -2.14784 | -79.88274 | 33 ft | 0 kts | 301° |
| 2026-04-23 21:55 | -2.14792 | -79.88261 | 32 ft | 2 kts | 300° |
| 2026-04-23 21:55 | -2.14799 | -79.88248 | 32 ft | 2 kts | 301° |
| 2026-04-23 21:55 | -2.14807 | -79.88235 | 31 ft | 2 kts | 300° |
| 2026-04-23 21:55 | -2.14813 | -79.88226 | 31 ft | 0 kts | 301° |
| 2026-04-23 21:56 | -2.14816 | -79.88218 | 31 ft | 1 kts | 252° |
| 2026-04-23 21:56 | -2.14812 | -79.88212 | 31 ft | 0 kts | 209° |
| 2026-04-23 21:56 | -2.14806 | -79.88209 | 31 ft | 0 kts | 212° |
| 2026-04-23 22:00 | -2.14871 | -79.88252 | 31 ft | 18 kts | 211° |
| 2026-04-23 22:00 | -2.14991 | -79.88316 | 30 ft | 23 kts | 206° |
| 2026-04-23 22:01 | -2.15130 | -79.88388 | 31 ft | 20 kts | 189° |
| 2026-04-23 22:01 | -2.15212 | -79.88306 | 30 ft | 16 kts | 117° |
| 2026-04-23 22:01 | -2.15283 | -79.88230 | 28 ft | 14 kts | 183° |
| 2026-04-23 22:01 | -2.15371 | -79.88264 | 29 ft | 11 kts | 207° |
| 2026-04-23 22:02 | -2.15464 | -79.88317 | 30 ft | 25 kts | 212° |
| 2026-04-23 22:02 | -2.15686 | -79.88446 | 32 ft | 46 kts | 208° |
| 2026-04-23 22:02 | -2.16010 | -79.88631 | 36 ft | 60 kts | 210° |
| 2026-04-23 22:02 | -2.16344 | -79.88824 | 36 ft | 44 kts | 210° |
| 2026-04-23 22:03 | -2.16582 | -79.88960 | 32 ft | 32 kts | 211° |
| 2026-04-23 22:03 | -2.16757 | -79.89043 | 31 ft | 16 kts | 175° |
| 2026-04-23 22:03 | -2.16768 | -79.89040 | 31 ft | 0 kts | 161° |
| 2026-04-23 22:03 | -2.16769 | -79.89040 | 31 ft | 0 kts | 160° |
| 2026-04-23 22:04 | -2.16776 | -79.89037 | 31 ft | 3 kts | 153° |
| 2026-04-23 22:04 | -2.16785 | -79.89030 | 31 ft | 0 kts | 134° |
| 2026-04-23 22:04 | -2.16796 | -79.89009 | 30 ft | 5 kts | 95° |
| 2026-04-23 22:05 | -2.16765 | -79.88961 | 30 ft | 14 kts | 32° |
| 2026-04-23 22:05 | -2.16453 | -79.88776 | 34 ft | 99 kts | 28° |
| 2026-04-23 22:05 | -2.15593 | -79.88280 | 47 ft | 181 kts | 30° |
| 2026-04-23 22:05 | -2.14497 | -79.87637 | 1066 ft | 184 kts | 29° |
| 2026-04-23 22:06 | -2.13396 | -79.87003 | 2003 ft | 194 kts | 39° |
| 2026-04-23 22:06 | -2.12717 | -79.85828 | 2685 ft | 208 kts | 82° |
| 2026-04-23 22:06 | -2.13035 | -79.84411 | 3374 ft | 219 kts | 125° |
| 2026-04-23 22:06 | -2.14184 | -79.83385 | 4052 ft | 232 kts | 148° |
| 2026-04-23 22:07 | -2.15676 | -79.82645 | 4762 ft | 247 kts | 160° |
| 2026-04-23 22:07 | -2.17413 | -79.82517 | 5544 ft | 262 kts | 193° |
| 2026-04-23 22:07 | -2.18990 | -79.83395 | 6453 ft | 270 kts | 226° |
| 2026-04-23 22:07 | -2.19909 | -79.85061 | 7226 ft | 284 kts | 258° |
| 2026-04-23 22:08 | -2.19883 | -79.87010 | 8121 ft | 291 kts | 282° |
| 2026-04-23 22:08 | -2.19228 | -79.88917 | 9182 ft | 291 kts | 293° |
| 2026-04-23 22:08 | -2.18405 | -79.90745 | 10119 ft | 296 kts | 294° |
| 2026-04-23 22:08 | -2.17431 | -79.92590 | 10824 ft | 309 kts | 301° |
| 2026-04-23 22:09 | -2.16019 | -79.94268 | 11436 ft | 326 kts | 321° |
| 2026-04-23 22:09 | -2.13955 | -79.95277 | 12028 ft | 342 kts | 346° |
| 2026-04-23 22:09 | -2.11529 | -79.95329 | 12595 ft | 357 kts | 10° |
| 2026-04-23 22:09 | -2.09179 | -79.94373 | 13115 ft | 373 kts | 32° |
| 2026-04-23 22:10 | -2.07057 | -79.92807 | 13810 ft | 382 kts | 39° |
| 2026-04-23 22:10 | -2.05050 | -79.91074 | 14569 ft | 388 kts | 41° |
| 2026-04-23 22:10 | -2.03024 | -79.89254 | 15324 ft | 394 kts | 41° |
| 2026-04-23 22:10 | -2.00971 | -79.87424 | 16088 ft | 399 kts | 41° |
| 2026-04-23 22:11 | -1.98873 | -79.85592 | 16862 ft | 403 kts | 40° |
| 2026-04-23 22:11 | -1.96756 | -79.83778 | 17637 ft | 405 kts | 40° |
| 2026-04-23 22:11 | -1.94597 | -79.81953 | 18395 ft | 407 kts | 40° |
| 2026-04-23 22:11 | -1.92410 | -79.80119 | 19171 ft | 408 kts | 40° |
| 2026-04-23 22:12 | -1.90250 | -79.78314 | 19872 ft | 411 kts | 40° |
| 2026-04-23 22:12 | -1.88019 | -79.76454 | 20516 ft | 415 kts | 40° |
| 2026-04-23 22:12 | -1.85818 | -79.74619 | 21204 ft | 417 kts | 40° |
| 2026-04-23 22:12 | -1.83572 | -79.72746 | 21822 ft | 420 kts | 41° |
| 2026-04-23 22:13 | -1.81327 | -79.70872 | 22458 ft | 423 kts | 41° |
| 2026-04-23 22:13 | -1.79080 | -79.68996 | 23089 ft | 426 kts | 41° |
| 2026-04-23 22:13 | -1.76788 | -79.67083 | 23668 ft | 429 kts | 41° |
| 2026-04-23 22:13 | -1.74493 | -79.65167 | 24282 ft | 431 kts | 41° |
| 2026-04-23 22:14 | -1.72186 | -79.63241 | 24884 ft | 434 kts | 42° |
| 2026-04-23 22:14 | -1.69851 | -79.61290 | 25465 ft | 436 kts | 42° |
| 2026-04-23 22:14 | -1.67529 | -79.59351 | 25981 ft | 440 kts | 42° |
| 2026-04-23 22:14 | -1.65193 | -79.57401 | 26584 ft | 441 kts | 42° |
| 2026-04-23 22:15 | -1.62818 | -79.55420 | 27154 ft | 443 kts | 43° |
| 2026-04-23 22:15 | -1.60475 | -79.53442 | 27688 ft | 445 kts | 44° |
| 2026-04-23 22:15 | -1.58223 | -79.51303 | 28225 ft | 446 kts | 49° |
| 2026-04-23 22:15 | -1.56151 | -79.48971 | 28722 ft | 447 kts | 53° |
| 2026-04-23 22:16 | -1.54280 | -79.46535 | 29332 ft | 445 kts | 56° |
| 2026-04-23 22:16 | -1.52507 | -79.44006 | 30084 ft | 442 kts | 58° |
| 2026-04-23 22:16 | -1.50817 | -79.41478 | 30902 ft | 436 kts | 58° |
| 2026-04-23 22:16 | -1.49175 | -79.38967 | 31665 ft | 432 kts | 58° |
| 2026-04-23 22:17 | -1.47542 | -79.36453 | 32362 ft | 429 kts | 58° |
| 2026-04-23 22:17 | -1.45923 | -79.33958 | 32959 ft | 428 kts | 58° |
| 2026-04-23 22:17 | -1.44313 | -79.31477 | 33118 ft | 432 kts | 58° |
| 2026-04-23 22:17 | -1.42674 | -79.28962 | 33142 ft | 430 kts | 58° |
| 2026-04-23 22:18 | -1.39407 | -79.23975 | 33190 ft | 428 kts | 58° |
| 2026-04-23 22:18 | -1.36142 | -79.19012 | 33255 ft | 430 kts | 58° |
| 2026-04-23 22:19 | -1.32864 | -79.14036 | 33325 ft | 428 kts | 58° |
| 2026-04-23 22:19 | -1.29592 | -79.09071 | 33363 ft | 427 kts | 58° |
| 2026-04-23 22:20 | -1.26331 | -79.04121 | 33417 ft | 428 kts | 58° |
| 2026-04-23 22:20 | -1.23053 | -78.99143 | 33454 ft | 428 kts | 58° |
| 2026-04-23 22:21 | -1.19782 | -78.94175 | 33470 ft | 429 kts | 58° |
| 2026-04-23 22:21 | -1.16511 | -78.89206 | 33467 ft | 428 kts | 58° |
| 2026-04-23 22:22 | -1.13221 | -78.84209 | 33470 ft | 431 kts | 58° |
| 2026-04-23 22:22 | -1.09945 | -78.79241 | 33472 ft | 431 kts | 58° |
| 2026-04-23 22:23 | -1.06656 | -78.74258 | 33475 ft | 429 kts | 58° |
| 2026-04-23 22:23 | -1.03385 | -78.69295 | 33471 ft | 428 kts | 58° |
| 2026-04-23 22:24 | -1.00093 | -78.64296 | 33465 ft | 430 kts | 58° |
| 2026-04-23 22:24 | -0.96822 | -78.59331 | 33464 ft | 429 kts | 58° |
| 2026-04-23 22:25 | -0.93534 | -78.54341 | 33468 ft | 430 kts | 58° |
| 2026-04-23 22:25 | -0.90230 | -78.49329 | 33468 ft | 431 kts | 58° |
| 2026-04-23 22:26 | -0.86937 | -78.44331 | 33477 ft | 430 kts | 58° |
| 2026-04-23 22:26 | -0.83648 | -78.39337 | 33465 ft | 432 kts | 58° |
| 2026-04-23 22:27 | -0.80344 | -78.34322 | 33486 ft | 432 kts | 58° |
| 2026-04-23 22:27 | -0.77051 | -78.29326 | 33505 ft | 431 kts | 58° |
| 2026-04-23 22:28 | -0.73751 | -78.24318 | 33524 ft | 431 kts | 58° |
| 2026-04-23 22:28 | -0.70475 | -78.19346 | 33519 ft | 431 kts | 58° |
| 2026-04-23 22:29 | -0.67167 | -78.14329 | 33498 ft | 431 kts | 58° |
| 2026-04-23 22:29 | -0.63857 | -78.09308 | 33492 ft | 433 kts | 58° |
| 2026-04-23 22:30 | -0.60563 | -78.04310 | 33515 ft | 433 kts | 58° |
| 2026-04-23 22:30 | -0.57249 | -77.99279 | 33501 ft | 432 kts | 58° |
| 2026-04-23 22:31 | -0.53940 | -77.94257 | 33506 ft | 432 kts | 58° |
| 2026-04-23 22:31 | -0.50629 | -77.89232 | 33529 ft | 432 kts | 58° |
| 2026-04-23 22:32 | -0.47324 | -77.84219 | 33503 ft | 433 kts | 58° |
| 2026-04-23 22:32 | -0.44036 | -77.79229 | 33494 ft | 433 kts | 58° |
| 2026-04-23 22:33 | -0.40709 | -77.74181 | 33443 ft | 434 kts | 58° |
| 2026-04-23 22:33 | -0.37378 | -77.69129 | 33396 ft | 435 kts | 58° |
| 2026-04-23 22:34 | -0.34062 | -77.64097 | 33321 ft | 435 kts | 59° |
| 2026-04-23 22:34 | -0.30746 | -77.59065 | 33307 ft | 434 kts | 58° |
| 2026-04-23 22:35 | -0.27424 | -77.54025 | 33295 ft | 435 kts | 58° |
| 2026-04-23 22:35 | -0.24100 | -77.48983 | 33262 ft | 435 kts | 58° |
| 2026-04-23 22:36 | -0.20763 | -77.43913 | 33158 ft | 437 kts | 58° |
| 2026-04-23 22:36 | -0.17435 | -77.38853 | 33143 ft | 436 kts | 58° |
| 2026-04-23 22:37 | -0.14108 | -77.33797 | 33086 ft | 436 kts | 58° |
| 2026-04-23 22:37 | -0.10770 | -77.28732 | 33023 ft | 436 kts | 58° |
| 2026-04-23 22:38 | -0.07437 | -77.23676 | 33016 ft | 437 kts | 58° |
| 2026-04-23 22:38 | -0.04091 | -77.18600 | 32972 ft | 440 kts | 58° |
| 2026-04-23 22:39 | -0.00731 | -77.13502 | 32966 ft | 438 kts | 58° |
| 2026-04-23 22:39 | 0.02625 | -77.08409 | 32939 ft | 437 kts | 58° |
| 2026-04-23 22:40 | 0.05970 | -77.03330 | 32921 ft | 440 kts | 58° |
| 2026-04-23 22:41 | 0.10984 | -76.95719 | 32926 ft | 439 kts | 58° |
| 2026-04-23 22:41 | 0.14336 | -76.90629 | 32924 ft | 439 kts | 58° |
| 2026-04-23 22:42 | 0.17713 | -76.85500 | 32919 ft | 440 kts | 58° |
| 2026-04-23 22:42 | 0.21076 | -76.80397 | 32935 ft | 440 kts | 58° |
| 2026-04-23 22:43 | 0.24426 | -76.75312 | 32944 ft | 440 kts | 58° |
| 2026-04-23 22:43 | 0.27791 | -76.70203 | 32950 ft | 441 kts | 58° |
| 2026-04-23 22:44 | 0.31181 | -76.65126 | 32949 ft | 440 kts | 57° |
| 2026-04-23 22:44 | 0.34637 | -76.60054 | 32952 ft | 441 kts | 57° |
| 2026-04-23 22:45 | 0.38085 | -76.55004 | 32936 ft | 441 kts | 57° |
| 2026-04-23 22:45 | 0.41539 | -76.49934 | 32919 ft | 440 kts | 57° |
| 2026-04-23 22:46 | 0.44969 | -76.44894 | 32929 ft | 441 kts | 57° |
| 2026-04-23 22:46 | 0.48424 | -76.39813 | 32940 ft | 441 kts | 57° |
| 2026-04-23 22:47 | 0.51879 | -76.34727 | 32923 ft | 440 kts | 57° |
| 2026-04-23 22:47 | 0.55304 | -76.29684 | 32934 ft | 442 kts | 57° |
| 2026-04-23 22:48 | 0.58747 | -76.24612 | 32928 ft | 442 kts | 57° |
| 2026-04-23 22:48 | 0.62213 | -76.19512 | 32939 ft | 441 kts | 57° |
| 2026-04-23 22:49 | 0.65644 | -76.14460 | 32924 ft | 442 kts | 57° |
| 2026-04-23 22:49 | 0.69103 | -76.09367 | 32912 ft | 443 kts | 57° |
| 2026-04-23 22:50 | 0.72566 | -76.04269 | 32918 ft | 441 kts | 57° |
| 2026-04-23 22:50 | 0.76018 | -75.99188 | 32904 ft | 443 kts | 57° |
| 2026-04-23 22:51 | 0.79466 | -75.94110 | 32909 ft | 444 kts | 57° |
| 2026-04-23 22:51 | 0.82940 | -75.88996 | 32913 ft | 443 kts | 57° |
| 2026-04-23 22:52 | 0.86397 | -75.83911 | 32913 ft | 444 kts | 57° |
| 2026-04-23 22:52 | 0.89862 | -75.78811 | 32913 ft | 443 kts | 57° |
| 2026-04-23 22:53 | 0.93313 | -75.73733 | 32910 ft | 443 kts | 57° |
| 2026-04-23 22:53 | 0.96802 | -75.68593 | 32911 ft | 445 kts | 57° |
| 2026-04-23 22:54 | 1.00256 | -75.63507 | 32921 ft | 445 kts | 57° |
| 2026-04-23 22:54 | 1.03740 | -75.58375 | 32915 ft | 443 kts | 57° |
| 2026-04-23 22:55 | 1.07185 | -75.53299 | 32916 ft | 445 kts | 57° |
| 2026-04-23 22:55 | 1.10654 | -75.48186 | 32914 ft | 444 kts | 57° |
| 2026-04-23 22:56 | 1.14148 | -75.43040 | 32925 ft | 445 kts | 57° |
| 2026-04-23 22:56 | 1.17620 | -75.37929 | 32923 ft | 446 kts | 57° |
| 2026-04-23 22:57 | 1.21086 | -75.32825 | 32926 ft | 445 kts | 57° |
| 2026-04-23 22:57 | 1.24577 | -75.27683 | 32922 ft | 446 kts | 57° |
| 2026-04-23 22:58 | 1.28045 | -75.22575 | 32921 ft | 446 kts | 57° |
| 2026-04-23 22:58 | 1.31528 | -75.17442 | 32920 ft | 446 kts | 57° |
| 2026-04-23 22:59 | 1.35024 | -75.12292 | 32912 ft | 447 kts | 57° |
| 2026-04-23 22:59 | 1.38509 | -75.07157 | 32913 ft | 448 kts | 57° |
| 2026-04-23 23:00 | 1.42001 | -75.02016 | 32905 ft | 447 kts | 57° |
| 2026-04-23 23:00 | 1.45484 | -74.96887 | 32901 ft | 448 kts | 57° |
| 2026-04-23 23:01 | 1.48970 | -74.91750 | 32899 ft | 447 kts | 57° |
| 2026-04-23 23:01 | 1.52472 | -74.86588 | 32897 ft | 448 kts | 57° |
| 2026-04-23 23:02 | 1.55965 | -74.81436 | 32905 ft | 448 kts | 57° |
| 2026-04-23 23:02 | 1.59453 | -74.76294 | 32909 ft | 448 kts | 57° |
| 2026-04-23 23:03 | 1.62937 | -74.71159 | 32914 ft | 449 kts | 57° |
| 2026-04-23 23:03 | 1.66441 | -74.65995 | 32915 ft | 449 kts | 57° |
| 2026-04-23 23:04 | 1.69938 | -74.60838 | 32915 ft | 449 kts | 57° |
| 2026-04-23 23:04 | 1.73434 | -74.55683 | 32913 ft | 449 kts | 57° |
| 2026-04-23 23:05 | 1.76947 | -74.50503 | 32911 ft | 448 kts | 57° |
| 2026-04-23 23:05 | 1.80440 | -74.45353 | 32911 ft | 449 kts | 57° |
| 2026-04-23 23:06 | 1.83954 | -74.40170 | 32910 ft | 449 kts | 57° |
| 2026-04-23 23:06 | 1.87447 | -74.35016 | 32913 ft | 450 kts | 57° |
| 2026-04-23 23:07 | 1.90946 | -74.29854 | 32907 ft | 450 kts | 57° |
| 2026-04-23 23:07 | 1.94460 | -74.24672 | 32911 ft | 451 kts | 57° |
| 2026-04-23 23:08 | 1.97967 | -74.19497 | 32912 ft | 450 kts | 57° |
| 2026-04-23 23:08 | 2.01503 | -74.14320 | 32912 ft | 450 kts | 56° |
| 2026-04-23 23:09 | 2.05087 | -74.09203 | 32911 ft | 451 kts | 56° |
| 2026-04-23 23:09 | 2.08679 | -74.04108 | 32909 ft | 450 kts | 56° |
| 2026-04-23 23:10 | 2.12290 | -73.98978 | 32910 ft | 451 kts | 56° |
| 2026-04-23 23:10 | 2.15882 | -73.93863 | 32909 ft | 451 kts | 56° |
| 2026-04-23 23:11 | 2.19470 | -73.88746 | 32911 ft | 450 kts | 56° |
| 2026-04-23 23:11 | 2.23086 | -73.83584 | 32907 ft | 451 kts | 56° |
| 2026-04-23 23:12 | 2.26653 | -73.78493 | 32914 ft | 450 kts | 56° |
| 2026-04-23 23:12 | 2.30244 | -73.73366 | 32915 ft | 450 kts | 56° |
| 2026-04-23 23:13 | 2.33831 | -73.68246 | 32919 ft | 450 kts | 56° |
| 2026-04-23 23:13 | 2.37410 | -73.63136 | 32914 ft | 449 kts | 56° |
| 2026-04-23 23:14 | 2.40992 | -73.58021 | 32921 ft | 450 kts | 56° |
| 2026-04-23 23:14 | 2.44585 | -73.52889 | 32920 ft | 450 kts | 56° |
| 2026-04-23 23:15 | 2.48150 | -73.47798 | 32926 ft | 449 kts | 56° |
| 2026-04-23 23:15 | 2.51724 | -73.42693 | 32925 ft | 448 kts | 56° |
| 2026-04-23 23:16 | 2.55299 | -73.37588 | 32926 ft | 448 kts | 56° |
| 2026-04-23 23:16 | 2.58876 | -73.32478 | 32927 ft | 447 kts | 56° |
| 2026-04-23 23:17 | 2.62445 | -73.27380 | 32923 ft | 447 kts | 56° |
| 2026-04-23 23:17 | 2.66013 | -73.22283 | 32928 ft | 449 kts | 56° |
| 2026-04-23 23:18 | 2.69588 | -73.17174 | 32919 ft | 448 kts | 56° |
| 2026-04-23 23:18 | 2.73165 | -73.12062 | 32923 ft | 448 kts | 56° |
| 2026-04-23 23:19 | 2.76743 | -73.06947 | 32915 ft | 447 kts | 56° |
| 2026-04-23 23:19 | 2.80296 | -73.01868 | 32916 ft | 447 kts | 56° |
| 2026-04-23 23:20 | 2.83855 | -72.96783 | 32912 ft | 448 kts | 56° |
| 2026-04-23 23:20 | 2.87418 | -72.91691 | 32902 ft | 448 kts | 56° |
| 2026-04-23 23:21 | 2.91009 | -72.86556 | 32901 ft | 448 kts | 56° |
| 2026-04-23 23:21 | 2.94581 | -72.81448 | 32901 ft | 449 kts | 56° |
| 2026-04-23 23:22 | 2.98138 | -72.76362 | 32901 ft | 448 kts | 56° |
| 2026-04-23 23:22 | 3.01713 | -72.71247 | 32905 ft | 448 kts | 56° |
| 2026-04-23 23:23 | 3.05269 | -72.66158 | 32899 ft | 447 kts | 56° |
| 2026-04-23 23:23 | 3.08831 | -72.61059 | 32898 ft | 448 kts | 56° |
| 2026-04-23 23:24 | 3.12390 | -72.55961 | 32900 ft | 447 kts | 56° |
| 2026-04-23 23:24 | 3.15949 | -72.50864 | 32896 ft | 447 kts | 56° |
| 2026-04-23 23:25 | 3.19512 | -72.45753 | 32896 ft | 447 kts | 57° |
| 2026-04-23 23:25 | 3.23085 | -72.40629 | 32900 ft | 448 kts | 57° |
| 2026-04-23 23:26 | 3.26633 | -72.35540 | 32899 ft | 448 kts | 57° |
| 2026-04-23 23:26 | 3.30190 | -72.30439 | 32899 ft | 448 kts | 57° |
| 2026-04-23 23:27 | 3.33759 | -72.25319 | 32902 ft | 449 kts | 57° |
| 2026-04-23 23:27 | 3.37325 | -72.20202 | 32901 ft | 448 kts | 57° |
| 2026-04-23 23:28 | 3.40888 | -72.15091 | 32906 ft | 448 kts | 57° |
| 2026-04-23 23:28 | 3.44464 | -72.09961 | 32916 ft | 448 kts | 57° |
| 2026-04-23 23:29 | 3.48018 | -72.04861 | 32916 ft | 449 kts | 57° |
| 2026-04-23 23:29 | 3.51597 | -71.99726 | 32920 ft | 450 kts | 57° |
| 2026-04-23 23:30 | 3.55171 | -71.94599 | 32918 ft | 450 kts | 57° |
| 2026-04-23 23:30 | 3.58736 | -71.89487 | 32916 ft | 449 kts | 57° |
| 2026-04-23 23:31 | 3.62304 | -71.84366 | 32913 ft | 449 kts | 57° |
| 2026-04-23 23:31 | 3.65874 | -71.79235 | 32911 ft | 449 kts | 57° |
| 2026-04-23 23:32 | 3.69438 | -71.74108 | 32908 ft | 450 kts | 57° |
| 2026-04-23 23:32 | 3.73020 | -71.68956 | 32904 ft | 451 kts | 57° |
| 2026-04-23 23:33 | 3.76620 | -71.63782 | 32901 ft | 452 kts | 57° |
| 2026-04-23 23:33 | 3.80188 | -71.58652 | 32898 ft | 452 kts | 57° |
| 2026-04-23 23:34 | 3.83792 | -71.53473 | 32897 ft | 452 kts | 57° |
| 2026-04-23 23:34 | 3.87369 | -71.48328 | 32895 ft | 453 kts | 57° |
| 2026-04-23 23:35 | 3.90970 | -71.43146 | 32896 ft | 452 kts | 57° |
| 2026-04-23 23:35 | 3.94564 | -71.37970 | 32895 ft | 453 kts | 57° |
| 2026-04-23 23:36 | 3.98150 | -71.32807 | 32892 ft | 454 kts | 57° |
| 2026-04-23 23:36 | 4.01758 | -71.27610 | 32892 ft | 454 kts | 57° |
| 2026-04-23 23:37 | 4.05354 | -71.22429 | 32889 ft | 455 kts | 57° |
| 2026-04-23 23:37 | 4.08969 | -71.17220 | 32890 ft | 455 kts | 57° |
| 2026-04-23 23:38 | 4.12582 | -71.12013 | 32887 ft | 455 kts | 57° |
| 2026-04-23 23:38 | 4.16194 | -71.06808 | 32888 ft | 455 kts | 57° |
| 2026-04-23 23:39 | 4.19803 | -71.01605 | 32885 ft | 455 kts | 57° |
| 2026-04-23 23:39 | 4.23407 | -70.96409 | 32886 ft | 455 kts | 57° |
| 2026-04-23 23:40 | 4.27021 | -70.91196 | 32886 ft | 456 kts | 57° |
| 2026-04-23 23:40 | 4.30632 | -70.85987 | 32887 ft | 457 kts | 57° |
| 2026-04-23 23:41 | 4.34250 | -70.80769 | 32887 ft | 456 kts | 57° |
| 2026-04-23 23:41 | 4.37868 | -70.75549 | 32888 ft | 455 kts | 58° |
| 2026-04-23 23:42 | 4.41464 | -70.70358 | 32887 ft | 455 kts | 58° |
| 2026-04-23 23:42 | 4.45066 | -70.65158 | 32887 ft | 454 kts | 58° |
| 2026-04-23 23:43 | 4.48671 | -70.59953 | 32893 ft | 455 kts | 58° |
| 2026-04-23 23:43 | 4.52265 | -70.54762 | 32900 ft | 455 kts | 58° |
| 2026-04-23 23:44 | 4.55886 | -70.49531 | 32903 ft | 455 kts | 58° |
| 2026-04-23 23:44 | 4.59489 | -70.44327 | 32905 ft | 454 kts | 58° |
| 2026-04-23 23:45 | 4.63065 | -70.39159 | 32904 ft | 453 kts | 58° |
| 2026-04-23 23:45 | 4.66658 | -70.33965 | 32903 ft | 454 kts | 58° |
| 2026-04-23 23:46 | 4.70247 | -70.28767 | 32903 ft | 453 kts | 58° |
| 2026-04-23 23:46 | 4.73818 | -70.23586 | 32902 ft | 453 kts | 58° |
| 2026-04-23 23:47 | 4.77408 | -70.18375 | 32902 ft | 453 kts | 58° |
| 2026-04-23 23:47 | 4.80981 | -70.13190 | 32901 ft | 452 kts | 58° |
| 2026-04-23 23:48 | 4.84543 | -70.08021 | 32900 ft | 451 kts | 58° |
| 2026-04-23 23:48 | 4.88082 | -70.02882 | 32899 ft | 450 kts | 58° |
| 2026-04-23 23:49 | 4.93428 | -69.95118 | 32900 ft | 450 kts | 58° |
| 2026-04-23 23:49 | 4.96990 | -69.89944 | 32897 ft | 451 kts | 58° |
| 2026-04-23 23:50 | 5.00544 | -69.84780 | 32890 ft | 451 kts | 58° |
| 2026-04-23 23:50 | 5.04096 | -69.79621 | 32882 ft | 452 kts | 58° |
| 2026-04-23 23:51 | 5.07674 | -69.74421 | 32881 ft | 451 kts | 58° |
| 2026-04-23 23:51 | 5.11240 | -69.69237 | 32877 ft | 452 kts | 58° |
| 2026-04-23 23:52 | 5.14797 | -69.64065 | 32877 ft | 451 kts | 58° |
| 2026-04-23 23:52 | 5.18375 | -69.58859 | 32877 ft | 454 kts | 58° |
| 2026-04-23 23:53 | 5.21958 | -69.53647 | 32875 ft | 454 kts | 58° |
| 2026-04-23 23:53 | 5.25527 | -69.48454 | 32876 ft | 455 kts | 58° |
| 2026-04-23 23:54 | 5.29112 | -69.43238 | 32874 ft | 454 kts | 58° |
| 2026-04-23 23:54 | 5.32713 | -69.37997 | 32873 ft | 454 kts | 58° |
| 2026-04-23 23:55 | 5.36283 | -69.32799 | 32871 ft | 454 kts | 58° |
| 2026-04-23 23:55 | 5.39868 | -69.27579 | 32871 ft | 455 kts | 58° |
| 2026-04-23 23:56 | 5.43451 | -69.22359 | 32871 ft | 456 kts | 58° |
| 2026-04-23 23:56 | 5.47051 | -69.17113 | 32871 ft | 457 kts | 58° |
| 2026-04-23 23:57 | 5.50645 | -69.11875 | 32866 ft | 456 kts | 58° |
| 2026-04-23 23:57 | 5.54242 | -69.06634 | 32870 ft | 456 kts | 58° |
| 2026-04-23 23:58 | 5.57828 | -69.01405 | 32881 ft | 456 kts | 58° |
| 2026-04-23 23:58 | 5.61430 | -68.96152 | 32885 ft | 457 kts | 58° |
| 2026-04-23 23:59 | 5.65045 | -68.90878 | 32886 ft | 457 kts | 58° |
| 2026-04-23 23:59 | 5.68632 | -68.85641 | 32885 ft | 458 kts | 58° |
| 2026-04-24 00:00 | 5.72235 | -68.80383 | 32879 ft | 457 kts | 58° |
| 2026-04-24 00:00 | 5.75837 | -68.75125 | 32878 ft | 457 kts | 58° |
| 2026-04-24 00:01 | 5.79436 | -68.69870 | 32875 ft | 457 kts | 58° |
| 2026-04-24 00:01 | 5.83029 | -68.64623 | 32877 ft | 458 kts | 58° |
| 2026-04-24 00:02 | 5.86648 | -68.59335 | 32870 ft | 459 kts | 58° |
| 2026-04-24 00:02 | 5.90252 | -68.54066 | 32870 ft | 459 kts | 58° |
| 2026-04-24 00:03 | 5.93846 | -68.48811 | 32871 ft | 459 kts | 58° |
| 2026-04-24 00:03 | 5.97457 | -68.43531 | 32869 ft | 459 kts | 58° |
| 2026-04-24 00:04 | 6.01077 | -68.38236 | 32865 ft | 459 kts | 58° |
| 2026-04-24 00:04 | 6.04679 | -68.32966 | 32862 ft | 459 kts | 58° |
| 2026-04-24 00:05 | 6.08304 | -68.27660 | 32861 ft | 459 kts | 58° |
| 2026-04-24 00:05 | 6.11905 | -68.22391 | 32860 ft | 459 kts | 58° |
| 2026-04-24 00:06 | 6.15525 | -68.17110 | 32856 ft | 459 kts | 57° |
| 2026-04-24 00:06 | 6.19481 | -68.12109 | 32859 ft | 461 kts | 51° |
| 2026-04-24 00:07 | 6.23807 | -68.07322 | 32854 ft | 461 kts | 50° |
| 2026-04-24 00:07 | 6.28175 | -68.02596 | 32856 ft | 461 kts | 50° |
| 2026-04-24 00:08 | 6.32508 | -67.97873 | 32856 ft | 460 kts | 50° |
| 2026-04-24 00:08 | 6.36804 | -67.93144 | 32856 ft | 459 kts | 50° |
| 2026-04-24 00:09 | 6.41108 | -67.88377 | 32854 ft | 460 kts | 50° |
| 2026-04-24 00:09 | 6.45405 | -67.83607 | 32861 ft | 459 kts | 50° |
| 2026-04-24 00:10 | 6.49665 | -67.78872 | 32860 ft | 460 kts | 50° |
| 2026-04-24 00:10 | 6.53963 | -67.74091 | 32864 ft | 459 kts | 50° |
| 2026-04-24 00:11 | 6.58226 | -67.69350 | 32863 ft | 458 kts | 50° |
| 2026-04-24 00:11 | 6.62497 | -67.64597 | 32865 ft | 458 kts | 50° |
| 2026-04-24 00:12 | 6.66776 | -67.59835 | 32871 ft | 458 kts | 50° |
| 2026-04-24 00:12 | 6.71035 | -67.55094 | 32872 ft | 458 kts | 50° |
| 2026-04-24 00:13 | 6.75299 | -67.50344 | 32876 ft | 459 kts | 50° |
| 2026-04-24 00:13 | 6.79585 | -67.45564 | 32883 ft | 459 kts | 50° |
| 2026-04-24 00:14 | 6.83839 | -67.40817 | 32880 ft | 457 kts | 50° |
| 2026-04-24 00:14 | 6.88096 | -67.36066 | 32876 ft | 456 kts | 50° |
| 2026-04-24 00:15 | 6.92329 | -67.31338 | 32868 ft | 457 kts | 50° |
| 2026-04-24 00:15 | 6.96568 | -67.26605 | 32862 ft | 456 kts | 50° |
| 2026-04-24 00:16 | 7.00837 | -67.21859 | 32867 ft | 456 kts | 50° |
| 2026-04-24 00:16 | 7.05122 | -67.17152 | 32868 ft | 457 kts | 49° |
| 2026-04-24 00:17 | 7.09416 | -67.12444 | 32868 ft | 458 kts | 49° |
| 2026-04-24 00:17 | 7.13718 | -67.07713 | 32869 ft | 458 kts | 50° |
| 2026-04-24 00:18 | 7.17986 | -67.02949 | 32862 ft | 456 kts | 50° |
| 2026-04-24 00:18 | 7.22206 | -66.98212 | 32856 ft | 456 kts | 50° |
| 2026-04-24 00:19 | 7.26444 | -66.93452 | 32848 ft | 456 kts | 50° |
| 2026-04-24 00:19 | 7.30676 | -66.88702 | 32848 ft | 456 kts | 50° |
| 2026-04-24 00:20 | 7.34913 | -66.83949 | 32850 ft | 456 kts | 50° |
| 2026-04-24 00:20 | 7.39135 | -66.79213 | 32852 ft | 456 kts | 50° |
| 2026-04-24 00:21 | 7.43384 | -66.74446 | 32855 ft | 457 kts | 50° |
| 2026-04-24 00:21 | 7.47652 | -66.69656 | 32858 ft | 458 kts | 50° |
| 2026-04-24 00:22 | 7.51894 | -66.64894 | 32852 ft | 457 kts | 50° |
| 2026-04-24 00:22 | 7.56125 | -66.60143 | 32855 ft | 457 kts | 51° |
| 2026-04-24 00:23 | 7.60384 | -66.55361 | 32859 ft | 456 kts | 51° |
| 2026-04-24 00:23 | 7.64612 | -66.50610 | 32859 ft | 456 kts | 51° |
| 2026-04-24 00:24 | 7.68849 | -66.45848 | 32865 ft | 458 kts | 51° |
| 2026-04-24 00:24 | 7.73087 | -66.41083 | 32873 ft | 457 kts | 51° |
| 2026-04-24 00:25 | 7.77327 | -66.36311 | 32875 ft | 458 kts | 51° |
| 2026-04-24 00:25 | 7.81593 | -66.31509 | 32882 ft | 458 kts | 51° |
| 2026-04-24 00:26 | 7.85817 | -66.26752 | 32880 ft | 457 kts | 51° |
| 2026-04-24 00:26 | 7.90062 | -66.21970 | 32880 ft | 458 kts | 51° |
| 2026-04-24 00:27 | 7.94301 | -66.17191 | 32875 ft | 458 kts | 51° |
| 2026-04-24 00:27 | 7.98582 | -66.12402 | 32876 ft | 458 kts | 50° |
| 2026-04-24 00:28 | 8.02955 | -66.07735 | 32877 ft | 458 kts | 49° |
| 2026-04-24 00:28 | 8.07368 | -66.03098 | 32879 ft | 458 kts | 49° |
| 2026-04-24 00:29 | 8.11783 | -65.98451 | 32881 ft | 459 kts | 49° |
| 2026-04-24 00:29 | 8.16197 | -65.93787 | 32884 ft | 461 kts | 50° |
| 2026-04-24 00:30 | 8.20625 | -65.89095 | 32886 ft | 462 kts | 49° |
| 2026-04-24 00:30 | 8.25032 | -65.84415 | 32885 ft | 462 kts | 50° |
| 2026-04-24 00:31 | 8.29468 | -65.79700 | 32885 ft | 461 kts | 50° |
| 2026-04-24 00:31 | 8.33879 | -65.75009 | 32890 ft | 464 kts | 49° |
| 2026-04-24 00:32 | 8.36823 | -65.71878 | 32886 ft | 461 kts | 49° |
| 2026-04-24 00:32 | 8.42749 | -65.65573 | 32890 ft | 464 kts | 49° |
| 2026-04-24 00:33 | 8.47183 | -65.60850 | 32896 ft | 466 kts | 49° |
| 2026-04-24 00:33 | 8.51638 | -65.56105 | 32897 ft | 466 kts | 49° |
| 2026-04-24 00:34 | 8.56085 | -65.51366 | 32899 ft | 465 kts | 49° |
| 2026-04-24 00:34 | 8.60556 | -65.46600 | 32900 ft | 466 kts | 49° |
| 2026-04-24 00:35 | 8.65015 | -65.41848 | 32905 ft | 468 kts | 49° |
| 2026-04-24 00:35 | 8.69504 | -65.37061 | 32906 ft | 468 kts | 48° |
| 2026-04-24 00:36 | 8.73975 | -65.32293 | 32912 ft | 468 kts | 49° |
| 2026-04-24 00:36 | 8.78467 | -65.27500 | 32916 ft | 468 kts | 49° |
| 2026-04-24 00:37 | 8.82935 | -65.22728 | 32914 ft | 467 kts | 48° |
| 2026-04-24 00:37 | 8.87419 | -65.17940 | 32914 ft | 468 kts | 48° |
| 2026-04-24 00:38 | 8.91879 | -65.13174 | 32914 ft | 470 kts | 48° |
| 2026-04-24 00:38 | 8.96375 | -65.08368 | 32918 ft | 470 kts | 48° |
| 2026-04-24 00:39 | 9.00848 | -65.03586 | 32920 ft | 468 kts | 48° |
| 2026-04-24 00:39 | 9.05316 | -64.98801 | 32918 ft | 467 kts | 48° |
| 2026-04-24 00:40 | 9.09785 | -64.94014 | 32916 ft | 468 kts | 48° |
| 2026-04-24 00:40 | 9.14300 | -64.89177 | 32915 ft | 469 kts | 48° |
| 2026-04-24 00:41 | 9.18773 | -64.84383 | 32917 ft | 471 kts | 48° |
| 2026-04-24 00:41 | 9.23266 | -64.79569 | 32920 ft | 469 kts | 48° |
| 2026-04-24 00:42 | 9.27736 | -64.74775 | 32928 ft | 469 kts | 48° |
| 2026-04-24 00:42 | 9.32213 | -64.69976 | 32931 ft | 468 kts | 48° |
| 2026-04-24 00:43 | 9.36690 | -64.65174 | 32937 ft | 470 kts | 48° |
| 2026-04-24 00:43 | 9.41188 | -64.60347 | 32942 ft | 469 kts | 48° |
| 2026-04-24 00:44 | 9.45676 | -64.55528 | 32946 ft | 472 kts | 48° |
| 2026-04-24 00:44 | 9.50172 | -64.50699 | 32952 ft | 472 kts | 48° |
| 2026-04-24 00:45 | 9.54669 | -64.45870 | 32957 ft | 472 kts | 48° |
| 2026-04-24 00:45 | 9.59176 | -64.41027 | 32966 ft | 471 kts | 48° |
| 2026-04-24 00:46 | 9.63657 | -64.36210 | 32969 ft | 472 kts | 48° |
| 2026-04-24 00:46 | 9.68147 | -64.31379 | 32982 ft | 472 kts | 48° |
| 2026-04-24 00:47 | 9.72668 | -64.26512 | 32983 ft | 473 kts | 48° |
| 2026-04-24 00:47 | 9.77148 | -64.21689 | 33004 ft | 471 kts | 48° |
| 2026-04-24 00:48 | 9.81647 | -64.16841 | 33034 ft | 473 kts | 48° |
| 2026-04-24 00:48 | 9.86169 | -64.11968 | 33061 ft | 474 kts | 47° |
| 2026-04-24 00:49 | 9.90707 | -64.07075 | 33094 ft | 473 kts | 47° |
| 2026-04-24 00:49 | 9.95210 | -64.02217 | 33123 ft | 474 kts | 47° |
| 2026-04-24 00:50 | 9.99723 | -63.97350 | 33140 ft | 473 kts | 47° |
| 2026-04-24 00:50 | 10.04205 | -63.92513 | 33117 ft | 473 kts | 47° |
| 2026-04-24 00:51 | 10.08718 | -63.87637 | 33103 ft | 474 kts | 47° |
| 2026-04-24 00:51 | 10.13227 | -63.82763 | 33087 ft | 475 kts | 47° |
| 2026-04-24 00:52 | 10.17755 | -63.77867 | 33088 ft | 472 kts | 47° |
| 2026-04-24 00:52 | 10.22247 | -63.73008 | 33097 ft | 473 kts | 47° |
| 2026-04-24 00:53 | 10.26756 | -63.68130 | 33112 ft | 473 kts | 48° |
| 2026-04-24 00:53 | 10.31231 | -63.63284 | 33084 ft | 473 kts | 48° |
| 2026-04-24 00:54 | 10.35750 | -63.58388 | 33046 ft | 471 kts | 48° |
| 2026-04-24 00:54 | 10.40224 | -63.53538 | 33018 ft | 472 kts | 48° |
| 2026-04-24 00:55 | 10.44713 | -63.48671 | 32981 ft | 474 kts | 48° |
| 2026-04-24 00:55 | 10.49225 | -63.43753 | 32962 ft | 474 kts | 50° |
| 2026-04-24 00:56 | 10.52740 | -63.38190 | 32952 ft | 469 kts | 69° |
| 2026-04-24 00:56 | 10.54222 | -63.31779 | 32953 ft | 465 kts | 86° |
| 2026-04-24 00:57 | 10.54434 | -63.25265 | 32960 ft | 463 kts | 92° |
| 2026-04-24 00:58 | 10.54163 | -63.15530 | 32945 ft | 461 kts | 94° |
| 2026-04-24 00:58 | 10.53971 | -63.09008 | 32938 ft | 461 kts | 93° |
| 2026-04-24 00:59 | 10.53817 | -63.02522 | 32931 ft | 462 kts | 93° |
| 2026-04-24 00:59 | 10.53688 | -62.96012 | 32927 ft | 462 kts | 93° |
| 2026-04-24 01:00 | 10.53570 | -62.89504 | 32926 ft | 462 kts | 93° |
| 2026-04-24 01:00 | 10.53456 | -62.82985 | 32927 ft | 462 kts | 93° |
| 2026-04-24 01:01 | 10.53344 | -62.76507 | 32927 ft | 462 kts | 93° |
| 2026-04-24 01:01 | 10.53230 | -62.69972 | 32929 ft | 461 kts | 93° |
| 2026-04-24 01:02 | 10.53115 | -62.63473 | 32933 ft | 462 kts | 93° |
| 2026-04-24 01:02 | 10.52998 | -62.56982 | 32935 ft | 461 kts | 93° |
| 2026-04-24 01:03 | 10.52880 | -62.50482 | 32934 ft | 461 kts | 93° |
| 2026-04-24 01:03 | 10.52761 | -62.43999 | 32936 ft | 462 kts | 93° |
| 2026-04-24 01:04 | 10.52640 | -62.37480 | 32937 ft | 461 kts | 93° |
| 2026-04-24 01:04 | 10.52520 | -62.31029 | 32592 ft | 455 kts | 93° |
| 2026-04-24 01:04 | 10.52460 | -62.27814 | 32088 ft | 450 kts | 93° |
| 2026-04-24 01:05 | 10.52401 | -62.24675 | 31426 ft | 448 kts | 92° |
| 2026-04-24 01:05 | 10.52339 | -62.21496 | 30645 ft | 449 kts | 92° |
| 2026-04-24 01:05 | 10.52278 | -62.18362 | 29984 ft | 447 kts | 92° |
| 2026-04-24 01:05 | 10.52216 | -62.15208 | 29377 ft | 444 kts | 91° |
| 2026-04-24 01:06 | 10.52156 | -62.12111 | 28737 ft | 442 kts | 91° |
| 2026-04-24 01:06 | 10.52096 | -62.09025 | 28107 ft | 440 kts | 91° |
| 2026-04-24 01:06 | 10.52036 | -62.05930 | 27453 ft | 438 kts | 91° |
| 2026-04-24 01:06 | 10.51976 | -62.02842 | 26795 ft | 436 kts | 91° |
| 2026-04-24 01:07 | 10.51916 | -61.99777 | 26127 ft | 434 kts | 91° |
| 2026-04-24 01:07 | 10.51857 | -61.96757 | 25476 ft | 431 kts | 91° |
| 2026-04-24 01:07 | 10.51803 | -61.93711 | 24813 ft | 429 kts | 90° |
| 2026-04-24 01:07 | 10.51925 | -61.90725 | 24151 ft | 426 kts | 84° |
| 2026-04-24 01:08 | 10.52506 | -61.87785 | 23488 ft | 423 kts | 73° |
| 2026-04-24 01:08 | 10.53635 | -61.85079 | 22849 ft | 420 kts | 62° |
| 2026-04-24 01:08 | 10.55184 | -61.82571 | 22173 ft | 415 kts | 55° |
| 2026-04-24 01:08 | 10.56856 | -61.80234 | 21553 ft | 398 kts | 53° |
| 2026-04-24 01:09 | 10.58496 | -61.78076 | 20967 ft | 383 kts | 52° |
| 2026-04-24 01:09 | 10.60113 | -61.75994 | 20378 ft | 369 kts | 52° |
| 2026-04-24 01:09 | 10.61698 | -61.73960 | 19807 ft | 369 kts | 52° |
| 2026-04-24 01:09 | 10.63328 | -61.71861 | 19248 ft | 381 kts | 52° |
| 2026-04-24 01:10 | 10.64943 | -61.69768 | 18611 ft | 375 kts | 52° |
| 2026-04-24 01:10 | 10.66522 | -61.67708 | 17768 ft | 375 kts | 53° |
| 2026-04-24 01:10 | 10.68127 | -61.65603 | 17026 ft | 377 kts | 53° |
| 2026-04-24 01:10 | 10.69718 | -61.63511 | 16393 ft | 375 kts | 53° |
| 2026-04-24 01:11 | 10.71311 | -61.61414 | 15803 ft | 373 kts | 53° |
| 2026-04-24 01:11 | 10.72883 | -61.59341 | 15233 ft | 370 kts | 53° |
| 2026-04-24 01:11 | 10.74460 | -61.57262 | 14655 ft | 367 kts | 53° |
| 2026-04-24 01:11 | 10.75994 | -61.55239 | 14101 ft | 365 kts | 53° |
| 2026-04-24 01:12 | 10.77544 | -61.53195 | 13535 ft | 362 kts | 52° |
| 2026-04-24 01:12 | 10.79082 | -61.51166 | 12967 ft | 360 kts | 52° |
| 2026-04-24 01:12 | 10.80581 | -61.49189 | 12414 ft | 357 kts | 52° |
| 2026-04-24 01:12 | 10.82101 | -61.47183 | 11847 ft | 354 kts | 52° |
| 2026-04-24 01:13 | 10.83598 | -61.45207 | 11290 ft | 352 kts | 52° |
| 2026-04-24 01:13 | 10.85081 | -61.43250 | 10761 ft | 347 kts | 53° |
| 2026-04-24 01:13 | 10.86510 | -61.41364 | 10453 ft | 325 kts | 52° |
| 2026-04-24 01:13 | 10.87861 | -61.39579 | 10335 ft | 313 kts | 53° |
| 2026-04-24 01:14 | 10.89174 | -61.37837 | 10209 ft | 303 kts | 53° |
| 2026-04-24 01:14 | 10.90444 | -61.36156 | 10018 ft | 298 kts | 53° |
| 2026-04-24 01:14 | 10.91699 | -61.34496 | 9652 ft | 300 kts | 53° |
| 2026-04-24 01:14 | 10.92973 | -61.32811 | 9260 ft | 301 kts | 53° |
| 2026-04-24 01:15 | 10.94263 | -61.31106 | 8883 ft | 302 kts | 53° |
| 2026-04-24 01:15 | 10.95535 | -61.29424 | 8511 ft | 302 kts | 53° |
| 2026-04-24 01:15 | 10.96813 | -61.27735 | 8139 ft | 301 kts | 53° |
| 2026-04-24 01:15 | 10.98101 | -61.26034 | 7759 ft | 301 kts | 53° |
| 2026-04-24 01:16 | 10.99372 | -61.24357 | 7387 ft | 301 kts | 53° |
| 2026-04-24 01:16 | 11.00649 | -61.22669 | 7011 ft | 300 kts | 53° |
| 2026-04-24 01:16 | 11.01926 | -61.20979 | 6694 ft | 298 kts | 53° |
| 2026-04-24 01:16 | 11.03148 | -61.19363 | 6742 ft | 283 kts | 53° |
| 2026-04-24 01:17 | 11.04337 | -61.17790 | 6701 ft | 274 kts | 53° |
| 2026-04-24 01:17 | 11.05489 | -61.16266 | 6609 ft | 269 kts | 53° |
| 2026-04-24 01:17 | 11.06636 | -61.14746 | 6247 ft | 271 kts | 53° |
| 2026-04-24 01:17 | 11.07767 | -61.13253 | 5904 ft | 260 kts | 53° |
| 2026-04-24 01:18 | 11.08848 | -61.11826 | 5354 ft | 257 kts | 53° |
| 2026-04-24 01:18 | 11.09945 | -61.10376 | 4757 ft | 256 kts | 53° |
| 2026-04-24 01:18 | 11.11017 | -61.08956 | 4203 ft | 253 kts | 53° |
| 2026-04-24 01:18 | 11.12082 | -61.07545 | 3726 ft | 247 kts | 53° |
| 2026-04-24 01:19 | 11.13093 | -61.06207 | 3528 ft | 230 kts | 53° |
| 2026-04-24 01:19 | 11.14041 | -61.04958 | 3359 ft | 216 kts | 54° |
| 2026-04-24 01:19 | 11.14941 | -61.03774 | 3139 ft | 206 kts | 54° |
| 2026-04-24 01:19 | 11.15778 | -61.02647 | 2932 ft | 195 kts | 58° |
| 2026-04-24 01:20 | 11.16399 | -61.01443 | 2757 ft | 187 kts | 71° |
| 2026-04-24 01:20 | 11.16676 | -61.00225 | 2642 ft | 172 kts | 85° |
| 2026-04-24 01:20 | 11.16614 | -60.99017 | 2522 ft | 170 kts | 100° |
| 2026-04-24 01:20 | 11.16243 | -60.97868 | 2363 ft | 170 kts | 109° |
| 2026-04-24 01:21 | 11.15952 | -60.96729 | 2210 ft | 163 kts | 96° |
| 2026-04-24 01:21 | 11.15860 | -60.95593 | 2029 ft | 157 kts | 92° |
| 2026-04-24 01:21 | 11.15794 | -60.94497 | 1948 ft | 152 kts | 92° |
| 2026-04-24 01:21 | 11.15710 | -60.93392 | 1782 ft | 159 kts | 93° |
| 2026-04-24 01:22 | 11.15628 | -60.92285 | 1546 ft | 156 kts | 93° |
| 2026-04-24 01:22 | 11.15550 | -60.91175 | 1351 ft | 157 kts | 93° |
| 2026-04-24 01:22 | 11.15468 | -60.90058 | 1143 ft | 158 kts | 93° |
| 2026-04-24 01:22 | 11.15385 | -60.88937 | 933 ft | 154 kts | 94° |
| 2026-04-24 01:23 | 11.15309 | -60.87891 | 771 ft | 147 kts | 94° |
| 2026-04-24 01:23 | 11.15235 | -60.86865 | 562 ft | 143 kts | 94° |
| 2026-04-24 01:23 | 11.15159 | -60.85848 | 379 ft | 144 kts | 94° |
| 2026-04-24 01:23 | 11.15078 | -60.84815 | 195 ft | 147 kts | 94° |
| 2026-04-24 01:24 | 11.15010 | -60.83793 | 76 ft | 138 kts | 95° |
| 2026-04-24 01:24 | 11.14955 | -60.82907 | 48 ft | 106 kts | 102° |
| 2026-04-24 01:24 | 11.14915 | -60.82466 | 40 ft | 47 kts | 98° |
| 2026-04-24 01:24 | 11.14891 | -60.82138 | 33 ft | 31 kts | 104° |
| 2026-04-24 01:25 | 11.14886 | -60.82033 | 32 ft | 12 kts | 306° |
| 2026-04-24 01:25 | 11.14888 | -60.82103 | 33 ft | 8 kts | 272° |
| 2026-04-24 01:25 | 11.14893 | -60.82196 | 34 ft | 20 kts | 274° |
| 2026-04-24 01:25 | 11.14905 | -60.82378 | 38 ft | 30 kts | 275° |
| 2026-04-24 01:26 | 11.14921 | -60.82611 | 43 ft | 34 kts | 273° |
| 2026-04-24 01:26 | 11.14941 | -60.82865 | 47 ft | 38 kts | 275° |
| 2026-04-24 01:26 | 11.14962 | -60.83172 | 50 ft | 46 kts | 275° |
| 2026-04-24 01:26 | 11.14991 | -60.83535 | 48 ft | 55 kts | 276° |
| 2026-04-24 01:27 | 11.15039 | -60.83801 | 46 ft | 28 kts | 323° |
| 2026-04-24 01:27 | 11.15112 | -60.83966 | 42 ft | 23 kts | 272° |
| 2026-04-24 01:27 | 11.15169 | -60.84007 | 42 ft | 0 kts | 12° |
| 2026-04-24 01:27 | 11.15174 | -60.84006 | 42 ft | 0 kts | 11° |
| 2026-04-24 01:28 | 11.15178 | -60.84005 | 42 ft | 0 kts | 11° |
| 2026-04-24 01:28 | 11.15181 | -60.84005 | 42 ft | 0 kts | 9° |
| 2026-04-24 01:28 | 11.15184 | -60.84004 | 42 ft | 0 kts | 7° |
| 2026-04-24 01:28 | 11.15188 | -60.84004 | 42 ft | 0 kts | 7° |
| 2026-04-24 01:29 | 11.15189 | -60.84003 | 42 ft | 0 kts | 8° |